sensor_id;sensor_type;location;lat;lon;timestamp;temperature;humidity
53422;DHT22;39319;52.944;5.928;2022-08-01T00:00:28;20.00;99.90
53422;DHT22;39319;52.944;5.928;2022-08-01T00:02:54;20.00;99.90
53422;DHT22;39319;52.944;5.928;2022-08-01T00:05:22;20.00;99.90
53422;DHT22;39319;52.944;5.928;2022-08-01T00:07:47;20.00;99.90
53422;DHT22;39319;52.944;5.928;2022-08-01T00:10:15;20.00;99.90
53422;DHT22;39319;52.944;5.928;2022-08-01T00:12:42;20.00;99.90
53422;DHT22;39319;52.944;5.928;2022-08-01T00:15:10;20.00;99.90
53422;DHT22;39319;52.944;5.928;2022-08-01T00:17:36;19.90;99.90
53422;DHT22;39319;52.944;5.928;2022-08-01T00:20:04;19.90;99.90
53422;DHT22;39319;52.944;5.928;2022-08-01T00:22:32;19.90;99.90
53422;DHT22;39319;52.944;5.928;2022-08-01T00:24:58;19.90;99.90
53422;DHT22;39319;52.944;5.928;2022-08-01T00:27:24;19.90;99.90
53422;DHT22;39319;52.944;5.928;2022-08-01T00:29:50;19.90;99.90
53422;DHT22;39319;52.944;5.928;2022-08-01T00:32:15;19.90;99.90
53422;DHT22;39319;52.944;5.928;2022-08-01T00:34:41;19.90;99.90
53422;DHT22;39319;52.944;5.928;2022-08-01T00:37:07;19.80;99.90
53422;DHT22;39319;52.944;5.928;2022-08-01T00:39:33;19.80;99.90
53422;DHT22;39319;52.944;5.928;2022-08-01T00:42:00;19.80;99.90
53422;DHT22;39319;52.944;5.928;2022-08-01T00:44:27;19.80;99.90
53422;DHT22;39319;52.944;5.928;2022-08-01T00:46:53;19.90;99.90
53422;DHT22;39319;52.944;5.928;2022-08-01T00:49:18;19.80;99.90
53422;DHT22;39319;52.944;5.928;2022-08-01T00:51:44;19.80;99.90
53422;DHT22;39319;52.944;5.928;2022-08-01T00:54:12;19.90;99.90
53422;DHT22;39319;52.944;5.928;2022-08-01T00:56:38;19.90;99.90
53422;DHT22;39319;52.944;5.928;2022-08-01T00:59:03;19.90;99.90
53422;DHT22;39319;52.944;5.928;2022-08-01T01:01:31;19.80;99.90
53422;DHT22;39319;52.944;5.928;2022-08-01T01:03:56;19.90;99.90
53422;DHT22;39319;52.944;5.928;2022-08-01T01:11:43;19.80;99.90
53422;DHT22;39319;52.944;5.928;2022-08-01T01:14:17;19.80;99.90
53422;DHT22;39319;52.944;5.928;2022-08-01T01:16:45;19.80;99.90
53422;DHT22;39319;52.944;5.928;2022-08-01T01:19:17;19.80;99.90
53422;DHT22;39319;52.944;5.928;2022-08-01T01:24:55;19.80;99.90
53422;DHT22;39319;52.944;5.928;2022-08-01T01:27:48;19.70;99.90
53422;DHT22;39319;52.944;5.928;2022-08-01T01:30:15;19.70;99.90
53422;DHT22;39319;52.944;5.928;2022-08-01T01:32:50;19.70;99.90
53422;DHT22;39319;52.944;5.928;2022-08-01T01:35:24;19.70;99.90
53422;DHT22;39319;52.944;5.928;2022-08-01T01:38:01;19.70;99.90
53422;DHT22;39319;52.944;5.928;2022-08-01T01:40:30;19.70;99.90
53422;DHT22;39319;52.944;5.928;2022-08-01T01:42:56;19.70;99.90
53422;DHT22;39319;52.944;5.928;2022-08-01T01:45:26;19.70;99.90
53422;DHT22;39319;52.944;5.928;2022-08-01T01:47:53;19.60;99.90
53422;DHT22;39319;52.944;5.928;2022-08-01T01:50:20;19.60;99.90
53422;DHT22;39319;52.944;5.928;2022-08-01T01:52:48;19.60;99.90
53422;DHT22;39319;52.944;5.928;2022-08-01T01:55:15;19.60;99.90
53422;DHT22;39319;52.944;5.928;2022-08-01T01:57:45;19.60;99.90
53422;DHT22;39319;52.944;5.928;2022-08-01T02:00:13;19.60;99.90
53422;DHT22;39319;52.944;5.928;2022-08-01T02:02:41;19.50;99.90
53422;DHT22;39319;52.944;5.928;2022-08-01T02:05:10;19.60;99.90
53422;DHT22;39319;52.944;5.928;2022-08-01T02:07:37;19.60;99.90
53422;DHT22;39319;52.944;5.928;2022-08-01T02:10:05;19.60;99.90
53422;DHT22;39319;52.944;5.928;2022-08-01T02:12:35;19.50;99.90
53422;DHT22;39319;52.944;5.928;2022-08-01T02:15:02;19.60;99.90
53422;DHT22;39319;52.944;5.928;2022-08-01T02:17:30;19.50;99.90
53422;DHT22;39319;52.944;5.928;2022-08-01T02:19:57;19.50;99.90
53422;DHT22;39319;52.944;5.928;2022-08-01T02:22:30;19.50;99.90
53422;DHT22;39319;52.944;5.928;2022-08-01T02:25:11;19.50;99.90
53422;DHT22;39319;52.944;5.928;2022-08-01T02:27:43;19.50;99.90
53422;DHT22;39319;52.944;5.928;2022-08-01T02:30:14;19.50;99.90
53422;DHT22;39319;52.944;5.928;2022-08-01T02:32:46;19.40;99.90
53422;DHT22;39319;52.944;5.928;2022-08-01T02:35:14;19.40;99.90
53422;DHT22;39319;52.944;5.928;2022-08-01T02:37:44;19.40;99.90
53422;DHT22;39319;52.944;5.928;2022-08-01T02:40:12;19.40;99.90
53422;DHT22;39319;52.944;5.928;2022-08-01T02:42:42;19.40;99.90
53422;DHT22;39319;52.944;5.928;2022-08-01T02:45:10;19.40;99.90
53422;DHT22;39319;52.944;5.928;2022-08-01T02:47:37;19.30;99.90
53422;DHT22;39319;52.944;5.928;2022-08-01T02:50:05;19.30;99.90
53422;DHT22;39319;52.944;5.928;2022-08-01T02:52:34;19.40;99.90
53422;DHT22;39319;52.944;5.928;2022-08-01T02:55:04;19.40;99.90
53422;DHT22;39319;52.944;5.928;2022-08-01T02:57:31;19.40;99.90
53422;DHT22;39319;52.944;5.928;2022-08-01T02:59:58;19.40;99.90
53422;DHT22;39319;52.944;5.928;2022-08-01T03:02:26;19.40;99.90
53422;DHT22;39319;52.944;5.928;2022-08-01T03:04:52;19.40;99.90
53422;DHT22;39319;52.944;5.928;2022-08-01T03:07:19;19.40;99.90
53422;DHT22;39319;52.944;5.928;2022-08-01T03:09:47;19.40;99.90
53422;DHT22;39319;52.944;5.928;2022-08-01T03:12:17;19.40;99.90
53422;DHT22;39319;52.944;5.928;2022-08-01T03:14:46;19.40;99.90
53422;DHT22;39319;52.944;5.928;2022-08-01T03:17:13;19.40;99.90
53422;DHT22;39319;52.944;5.928;2022-08-01T03:19:40;19.40;99.90
53422;DHT22;39319;52.944;5.928;2022-08-01T03:22:10;19.40;99.90
53422;DHT22;39319;52.944;5.928;2022-08-01T03:24:38;19.40;99.90
53422;DHT22;39319;52.944;5.928;2022-08-01T03:27:06;19.40;99.90
53422;DHT22;39319;52.944;5.928;2022-08-01T03:29:32;19.30;99.90
53422;DHT22;39319;52.944;5.928;2022-08-01T03:32:00;19.30;99.90
53422;DHT22;39319;52.944;5.928;2022-08-01T03:34:28;19.30;99.90
53422;DHT22;39319;52.944;5.928;2022-08-01T03:37:03;19.30;99.90
53422;DHT22;39319;52.944;5.928;2022-08-01T03:39:43;19.30;99.90
53422;DHT22;39319;52.944;5.928;2022-08-01T03:42:14;19.30;99.90
53422;DHT22;39319;52.944;5.928;2022-08-01T03:44:41;19.30;99.90
53422;DHT22;39319;52.944;5.928;2022-08-01T03:47:14;19.30;99.90
53422;DHT22;39319;52.944;5.928;2022-08-01T03:49:43;19.30;99.90
53422;DHT22;39319;52.944;5.928;2022-08-01T03:52:10;19.30;99.90
53422;DHT22;39319;52.944;5.928;2022-08-01T03:54:40;19.30;99.90
53422;DHT22;39319;52.944;5.928;2022-08-01T03:57:06;19.20;99.90
53422;DHT22;39319;52.944;5.928;2022-08-01T03:59:34;19.20;99.90
53422;DHT22;39319;52.944;5.928;2022-08-01T04:02:02;19.20;99.90
53422;DHT22;39319;52.944;5.928;2022-08-01T04:04:28;19.20;99.90
53422;DHT22;39319;52.944;5.928;2022-08-01T04:06:55;19.20;99.90
53422;DHT22;39319;52.944;5.928;2022-08-01T04:09:21;19.20;99.90
53422;DHT22;39319;52.944;5.928;2022-08-01T04:11:48;19.20;99.90
53422;DHT22;39319;52.944;5.928;2022-08-01T04:14:16;19.20;99.90
53422;DHT22;39319;52.944;5.928;2022-08-01T04:16:42;19.20;99.90
53422;DHT22;39319;52.944;5.928;2022-08-01T04:19:07;19.20;99.90
53422;DHT22;39319;52.944;5.928;2022-08-01T04:21:34;19.20;99.90
53422;DHT22;39319;52.944;5.928;2022-08-01T04:24:11;19.20;99.90
53422;DHT22;39319;52.944;5.928;2022-08-01T04:26:38;19.20;99.90
53422;DHT22;39319;52.944;5.928;2022-08-01T04:29:05;19.20;99.90
53422;DHT22;39319;52.944;5.928;2022-08-01T04:31:33;19.20;99.90
53422;DHT22;39319;52.944;5.928;2022-08-01T04:34:03;19.20;99.90
53422;DHT22;39319;52.944;5.928;2022-08-01T04:36:33;19.20;99.90
53422;DHT22;39319;52.944;5.928;2022-08-01T04:39:00;19.20;99.90
53422;DHT22;39319;52.944;5.928;2022-08-01T04:41:28;19.20;99.90
53422;DHT22;39319;52.944;5.928;2022-08-01T04:43:55;19.10;99.90
53422;DHT22;39319;52.944;5.928;2022-08-01T04:46:25;19.20;99.90
53422;DHT22;39319;52.944;5.928;2022-08-01T04:48:51;19.20;99.90
53422;DHT22;39319;52.944;5.928;2022-08-01T04:51:20;19.20;99.90
53422;DHT22;39319;52.944;5.928;2022-08-01T04:53:48;19.10;99.90
53422;DHT22;39319;52.944;5.928;2022-08-01T04:56:17;19.10;99.90
53422;DHT22;39319;52.944;5.928;2022-08-01T04:58:43;19.10;99.90
53422;DHT22;39319;52.944;5.928;2022-08-01T05:01:12;19.10;99.90
53422;DHT22;39319;52.944;5.928;2022-08-01T05:03:38;19.10;99.90
53422;DHT22;39319;52.944;5.928;2022-08-01T05:06:03;19.10;99.90
53422;DHT22;39319;52.944;5.928;2022-08-01T05:08:29;19.10;99.90
53422;DHT22;39319;52.944;5.928;2022-08-01T05:10:55;19.10;99.90
53422;DHT22;39319;52.944;5.928;2022-08-01T05:13:21;19.10;99.90
53422;DHT22;39319;52.944;5.928;2022-08-01T05:15:47;19.10;99.90
53422;DHT22;39319;52.944;5.928;2022-08-01T05:18:13;19.10;99.90
53422;DHT22;39319;52.944;5.928;2022-08-01T05:20:38;19.10;99.90
53422;DHT22;39319;52.944;5.928;2022-08-01T05:23:04;19.10;99.90
53422;DHT22;39319;52.944;5.928;2022-08-01T05:25:30;19.00;99.90
53422;DHT22;39319;52.944;5.928;2022-08-01T05:27:56;19.10;99.90
53422;DHT22;39319;52.944;5.928;2022-08-01T05:30:24;19.00;99.90
53422;DHT22;39319;52.944;5.928;2022-08-01T05:32:50;19.00;99.90
53422;DHT22;39319;52.944;5.928;2022-08-01T05:35:16;19.00;99.90
53422;DHT22;39319;52.944;5.928;2022-08-01T05:37:41;19.00;99.90
53422;DHT22;39319;52.944;5.928;2022-08-01T05:40:07;19.00;99.90
53422;DHT22;39319;52.944;5.928;2022-08-01T05:42:33;19.00;99.90
53422;DHT22;39319;52.944;5.928;2022-08-01T05:44:59;19.00;99.90
53422;DHT22;39319;52.944;5.928;2022-08-01T05:47:25;19.00;99.90
53422;DHT22;39319;52.944;5.928;2022-08-01T05:49:54;19.00;99.90
53422;DHT22;39319;52.944;5.928;2022-08-01T05:52:19;19.00;99.90
53422;DHT22;39319;52.944;5.928;2022-08-01T05:54:45;19.00;99.90
53422;DHT22;39319;52.944;5.928;2022-08-01T05:57:11;19.00;99.90
53422;DHT22;39319;52.944;5.928;2022-08-01T05:59:37;19.00;99.90
53422;DHT22;39319;52.944;5.928;2022-08-01T06:02:02;19.00;99.90
53422;DHT22;39319;52.944;5.928;2022-08-01T06:04:28;19.00;99.90
53422;DHT22;39319;52.944;5.928;2022-08-01T06:06:54;19.00;99.90
53422;DHT22;39319;52.944;5.928;2022-08-01T06:09:20;19.00;99.90
53422;DHT22;39319;52.944;5.928;2022-08-01T06:11:46;19.00;99.90
53422;DHT22;39319;52.944;5.928;2022-08-01T06:14:12;19.00;99.90
53422;DHT22;39319;52.944;5.928;2022-08-01T06:16:37;19.00;99.90
53422;DHT22;39319;52.944;5.928;2022-08-01T06:19:03;19.00;99.90
53422;DHT22;39319;52.944;5.928;2022-08-01T06:21:29;19.00;99.90
53422;DHT22;39319;52.944;5.928;2022-08-01T06:23:55;19.00;99.90
53422;DHT22;39319;52.944;5.928;2022-08-01T06:26:21;19.00;99.90
53422;DHT22;39319;52.944;5.928;2022-08-01T06:28:47;19.00;99.90
53422;DHT22;39319;52.944;5.928;2022-08-01T06:31:13;19.00;99.90
53422;DHT22;39319;52.944;5.928;2022-08-01T06:33:40;19.00;99.90
53422;DHT22;39319;52.944;5.928;2022-08-01T06:36:05;19.00;99.90
53422;DHT22;39319;52.944;5.928;2022-08-01T06:38:31;19.00;99.90
53422;DHT22;39319;52.944;5.928;2022-08-01T06:40:57;19.00;99.90
53422;DHT22;39319;52.944;5.928;2022-08-01T06:43:25;19.00;99.90
53422;DHT22;39319;52.944;5.928;2022-08-01T06:45:51;19.10;99.90
53422;DHT22;39319;52.944;5.928;2022-08-01T06:48:16;19.10;99.90
53422;DHT22;39319;52.944;5.928;2022-08-01T06:50:42;19.10;99.90
53422;DHT22;39319;52.944;5.928;2022-08-01T06:53:08;19.20;99.90
53422;DHT22;39319;52.944;5.928;2022-08-01T06:55:34;19.20;99.90
53422;DHT22;39319;52.944;5.928;2022-08-01T06:58:00;19.20;99.90
53422;DHT22;39319;52.944;5.928;2022-08-01T07:00:27;19.20;99.90
53422;DHT22;39319;52.944;5.928;2022-08-01T07:02:55;19.30;99.90
53422;DHT22;39319;52.944;5.928;2022-08-01T07:05:21;19.40;99.90
53422;DHT22;39319;52.944;5.928;2022-08-01T07:07:47;19.30;99.90
53422;DHT22;39319;52.944;5.928;2022-08-01T07:10:12;19.40;99.90
53422;DHT22;39319;52.944;5.928;2022-08-01T07:12:39;19.50;99.90
53422;DHT22;39319;52.944;5.928;2022-08-01T07:15:07;19.50;99.90
53422;DHT22;39319;52.944;5.928;2022-08-01T07:17:38;19.50;99.90
53422;DHT22;39319;52.944;5.928;2022-08-01T07:20:05;19.50;99.90
53422;DHT22;39319;52.944;5.928;2022-08-01T07:22:31;19.50;99.90
53422;DHT22;39319;52.944;5.928;2022-08-01T07:24:56;19.50;99.90
53422;DHT22;39319;52.944;5.928;2022-08-01T07:27:22;19.50;99.90
53422;DHT22;39319;52.944;5.928;2022-08-01T07:29:48;19.50;99.90
53422;DHT22;39319;52.944;5.928;2022-08-01T07:32:13;19.60;99.90
53422;DHT22;39319;52.944;5.928;2022-08-01T07:34:39;19.50;99.90
53422;DHT22;39319;52.944;5.928;2022-08-01T07:37:05;19.50;99.90
53422;DHT22;39319;52.944;5.928;2022-08-01T07:39:33;19.50;99.90
53422;DHT22;39319;52.944;5.928;2022-08-01T07:41:58;19.50;99.70
53422;DHT22;39319;52.944;5.928;2022-08-01T07:44:24;19.40;99.50
53422;DHT22;39319;52.944;5.928;2022-08-01T07:46:50;19.40;99.40
53422;DHT22;39319;52.944;5.928;2022-08-01T07:49:15;19.40;99.70
53422;DHT22;39319;52.944;5.928;2022-08-01T07:51:42;19.40;99.50
53422;DHT22;39319;52.944;5.928;2022-08-01T07:54:08;19.40;99.50
53422;DHT22;39319;52.944;5.928;2022-08-01T07:56:34;19.40;99.10
53422;DHT22;39319;52.944;5.928;2022-08-01T07:59:00;19.50;99.00
53422;DHT22;39319;52.944;5.928;2022-08-01T08:01:25;19.60;99.20
53422;DHT22;39319;52.944;5.928;2022-08-01T08:03:52;19.70;99.70
53422;DHT22;39319;52.944;5.928;2022-08-01T08:06:17;19.80;99.10
53422;DHT22;39319;52.944;5.928;2022-08-01T08:08:45;19.90;98.90
53422;DHT22;39319;52.944;5.928;2022-08-01T08:11:12;19.90;98.50
53422;DHT22;39319;52.944;5.928;2022-08-01T08:13:37;20.00;98.20
53422;DHT22;39319;52.944;5.928;2022-08-01T08:16:03;20.10;98.10
53422;DHT22;39319;52.944;5.928;2022-08-01T08:18:29;20.10;97.60
53422;DHT22;39319;52.944;5.928;2022-08-01T08:20:55;20.20;98.10
53422;DHT22;39319;52.944;5.928;2022-08-01T08:23:20;20.30;97.30
53422;DHT22;39319;52.944;5.928;2022-08-01T08:26:04;20.30;97.60
53422;DHT22;39319;52.944;5.928;2022-08-01T08:28:31;20.30;96.80
53422;DHT22;39319;52.944;5.928;2022-08-01T08:30:57;20.30;96.80
53422;DHT22;39319;52.944;5.928;2022-08-01T08:33:23;20.30;96.10
53422;DHT22;39319;52.944;5.928;2022-08-01T08:35:48;20.40;95.60
53422;DHT22;39319;52.944;5.928;2022-08-01T08:38:15;20.40;95.30
53422;DHT22;39319;52.944;5.928;2022-08-01T08:40:40;20.50;95.60
53422;DHT22;39319;52.944;5.928;2022-08-01T08:43:06;20.40;95.30
53422;DHT22;39319;52.944;5.928;2022-08-01T08:45:33;20.50;94.90
53422;DHT22;39319;52.944;5.928;2022-08-01T08:47:59;20.50;94.70
53422;DHT22;39319;52.944;5.928;2022-08-01T08:50:26;20.50;94.70
53422;DHT22;39319;52.944;5.928;2022-08-01T08:52:55;20.50;94.80
53422;DHT22;39319;52.944;5.928;2022-08-01T08:55:22;20.50;95.00
53422;DHT22;39319;52.944;5.928;2022-08-01T08:57:48;20.60;95.10
53422;DHT22;39319;52.944;5.928;2022-08-01T09:00:15;20.70;94.70
53422;DHT22;39319;52.944;5.928;2022-08-01T09:02:45;20.80;94.60
53422;DHT22;39319;52.944;5.928;2022-08-01T09:05:12;20.80;94.30
53422;DHT22;39319;52.944;5.928;2022-08-01T09:07:38;20.90;94.20
53422;DHT22;39319;52.944;5.928;2022-08-01T09:10:05;20.90;94.50
53422;DHT22;39319;52.944;5.928;2022-08-01T09:12:31;21.00;94.10
53422;DHT22;39319;52.944;5.928;2022-08-01T09:14:57;21.10;93.90
53422;DHT22;39319;52.944;5.928;2022-08-01T09:17:24;21.30;93.70
53422;DHT22;39319;52.944;5.928;2022-08-01T09:19:51;21.20;93.20
53422;DHT22;39319;52.944;5.928;2022-08-01T09:22:23;21.20;93.60
53422;DHT22;39319;52.944;5.928;2022-08-01T09:25:22;21.30;92.90
53422;DHT22;39319;52.944;5.928;2022-08-01T09:27:47;21.40;92.90
53422;DHT22;39319;52.944;5.928;2022-08-01T09:30:17;21.50;92.60
53422;DHT22;39319;52.944;5.928;2022-08-01T09:33:16;21.60;92.50
53422;DHT22;39319;52.944;5.928;2022-08-01T09:35:41;21.70;92.60
53422;DHT22;39319;52.944;5.928;2022-08-01T09:38:18;21.70;92.30
53422;DHT22;39319;52.944;5.928;2022-08-01T09:40:51;21.80;91.00
53422;DHT22;39319;52.944;5.928;2022-08-01T09:43:18;21.80;91.50
53422;DHT22;39319;52.944;5.928;2022-08-01T09:45:47;21.90;91.70
53422;DHT22;39319;52.944;5.928;2022-08-01T09:48:13;22.00;91.50
53422;DHT22;39319;52.944;5.928;2022-08-01T09:50:43;22.00;91.00
53422;DHT22;39319;52.944;5.928;2022-08-01T09:53:10;22.10;91.00
53422;DHT22;39319;52.944;5.928;2022-08-01T09:55:38;22.20;90.20
53422;DHT22;39319;52.944;5.928;2022-08-01T09:58:04;22.30;90.90
53422;DHT22;39319;52.944;5.928;2022-08-01T10:00:31;22.30;91.20
53422;DHT22;39319;52.944;5.928;2022-08-01T10:02:58;22.40;88.80
53422;DHT22;39319;52.944;5.928;2022-08-01T10:05:34;22.40;90.10
53422;DHT22;39319;52.944;5.928;2022-08-01T10:08:03;22.30;88.00
53422;DHT22;39319;52.944;5.928;2022-08-01T10:10:30;22.30;88.60
53422;DHT22;39319;52.944;5.928;2022-08-01T10:12:58;22.40;90.00
53422;DHT22;39319;52.944;5.928;2022-08-01T10:15:28;22.60;90.20
53422;DHT22;39319;52.944;5.928;2022-08-01T10:17:57;22.80;87.40
53422;DHT22;39319;52.944;5.928;2022-08-01T10:20:26;22.80;88.80
53422;DHT22;39319;52.944;5.928;2022-08-01T10:23:01;22.80;87.20
53422;DHT22;39319;52.944;5.928;2022-08-01T10:25:28;22.90;86.60
53422;DHT22;39319;52.944;5.928;2022-08-01T10:27:59;23.00;87.60
53422;DHT22;39319;52.944;5.928;2022-08-01T10:30:28;23.10;87.70
53422;DHT22;39319;52.944;5.928;2022-08-01T10:32:54;23.20;85.30
53422;DHT22;39319;52.944;5.928;2022-08-01T10:35:21;23.30;87.70
53422;DHT22;39319;52.944;5.928;2022-08-01T10:37:47;23.40;85.10
53422;DHT22;39319;52.944;5.928;2022-08-01T10:40:14;23.30;83.60
53422;DHT22;39319;52.944;5.928;2022-08-01T10:42:45;23.40;85.70
53422;DHT22;39319;52.944;5.928;2022-08-01T10:45:14;23.40;85.00
53422;DHT22;39319;52.944;5.928;2022-08-01T10:47:57;23.60;85.00
53422;DHT22;39319;52.944;5.928;2022-08-01T10:50:31;23.60;83.80
53422;DHT22;39319;52.944;5.928;2022-08-01T10:53:24;23.70;83.60
53422;DHT22;39319;52.944;5.928;2022-08-01T10:55:59;23.70;83.90
53422;DHT22;39319;52.944;5.928;2022-08-01T10:58:30;23.70;85.60
53422;DHT22;39319;52.944;5.928;2022-08-01T11:01:26;23.90;84.00
53422;DHT22;39319;52.944;5.928;2022-08-01T11:03:56;24.10;84.80
53422;DHT22;39319;52.944;5.928;2022-08-01T11:17:43;24.20;83.50
53422;DHT22;39319;52.944;5.928;2022-08-01T11:20:20;24.30;82.50
53422;DHT22;39319;52.944;5.928;2022-08-01T11:30:47;24.10;81.70
53422;DHT22;39319;52.944;5.928;2022-08-01T11:33:14;24.20;79.00
53422;DHT22;39319;52.944;5.928;2022-08-01T11:41:17;24.60;76.60
53422;DHT22;39319;52.944;5.928;2022-08-01T11:46:47;24.80;78.10
53422;DHT22;39319;52.944;5.928;2022-08-01T11:49:23;24.90;78.60
53422;DHT22;39319;52.944;5.928;2022-08-01T11:54:29;25.20;77.80
53422;DHT22;39319;52.944;5.928;2022-08-01T11:56:56;25.30;76.10
53422;DHT22;39319;52.944;5.928;2022-08-01T11:59:22;25.40;76.50
53422;DHT22;39319;52.944;5.928;2022-08-01T12:01:49;25.50;74.70
53422;DHT22;39319;52.944;5.928;2022-08-01T12:04:14;25.50;76.10
53422;DHT22;39319;52.944;5.928;2022-08-01T12:06:40;25.50;74.80
53422;DHT22;39319;52.944;5.928;2022-08-01T12:09:17;25.60;72.50
53422;DHT22;39319;52.944;5.928;2022-08-01T12:11:43;25.50;73.20
53422;DHT22;39319;52.944;5.928;2022-08-01T12:14:09;25.50;73.10
53422;DHT22;39319;52.944;5.928;2022-08-01T12:16:36;25.50;73.40
53422;DHT22;39319;52.944;5.928;2022-08-01T12:19:02;25.60;74.50
53422;DHT22;39319;52.944;5.928;2022-08-01T12:21:28;25.60;73.80
53422;DHT22;39319;52.944;5.928;2022-08-01T12:24:00;25.60;72.50
53422;DHT22;39319;52.944;5.928;2022-08-01T12:26:40;25.60;71.80
53422;DHT22;39319;52.944;5.928;2022-08-01T12:29:06;25.70;72.70
53422;DHT22;39319;52.944;5.928;2022-08-01T12:31:33;25.70;72.10
53422;DHT22;39319;52.944;5.928;2022-08-01T12:34:28;25.70;70.50
53422;DHT22;39319;52.944;5.928;2022-08-01T12:36:56;25.80;71.50
53422;DHT22;39319;52.944;5.928;2022-08-01T12:39:29;25.80;72.30
53422;DHT22;39319;52.944;5.928;2022-08-01T12:41:55;25.70;70.80
53422;DHT22;39319;52.944;5.928;2022-08-01T12:44:21;25.80;71.70
53422;DHT22;39319;52.944;5.928;2022-08-01T12:46:47;25.80;71.70
53422;DHT22;39319;52.944;5.928;2022-08-01T12:49:13;25.90;72.50
53422;DHT22;39319;52.944;5.928;2022-08-01T12:51:40;25.80;69.10
53422;DHT22;39319;52.944;5.928;2022-08-01T12:54:06;25.80;69.00
53422;DHT22;39319;52.944;5.928;2022-08-01T12:56:35;25.80;72.00
53422;DHT22;39319;52.944;5.928;2022-08-01T12:59:01;25.80;72.40
53422;DHT22;39319;52.944;5.928;2022-08-01T13:01:28;25.90;70.50
53422;DHT22;39319;52.944;5.928;2022-08-01T13:04:01;25.90;68.10
53422;DHT22;39319;52.944;5.928;2022-08-01T13:06:29;25.90;69.30
53422;DHT22;39319;52.944;5.928;2022-08-01T13:09:07;25.90;69.00
53422;DHT22;39319;52.944;5.928;2022-08-01T13:11:34;25.90;66.90
53422;DHT22;39319;52.944;5.928;2022-08-01T13:14:00;25.80;69.20
53422;DHT22;39319;52.944;5.928;2022-08-01T13:16:27;25.80;70.10
53422;DHT22;39319;52.944;5.928;2022-08-01T13:18:54;25.80;68.00
53422;DHT22;39319;52.944;5.928;2022-08-01T13:21:22;25.90;69.40
53422;DHT22;39319;52.944;5.928;2022-08-01T13:24:09;25.90;66.60
53422;DHT22;39319;52.944;5.928;2022-08-01T13:26:43;26.00;66.00
53422;DHT22;39319;52.944;5.928;2022-08-01T13:29:11;26.00;66.50
53422;DHT22;39319;52.944;5.928;2022-08-01T13:31:39;26.00;67.00
53422;DHT22;39319;52.944;5.928;2022-08-01T13:34:05;26.00;66.40
53422;DHT22;39319;52.944;5.928;2022-08-01T13:36:31;26.00;62.80
53422;DHT22;39319;52.944;5.928;2022-08-01T13:38:58;25.90;63.60
53422;DHT22;39319;52.944;5.928;2022-08-01T13:41:44;25.90;65.30
53422;DHT22;39319;52.944;5.928;2022-08-01T13:44:10;25.80;65.50
53422;DHT22;39319;52.944;5.928;2022-08-01T13:46:37;25.80;67.00
53422;DHT22;39319;52.944;5.928;2022-08-01T13:49:07;25.70;65.90
53422;DHT22;39319;52.944;5.928;2022-08-01T13:51:34;25.70;65.80
53422;DHT22;39319;52.944;5.928;2022-08-01T13:54:00;25.70;67.10
53422;DHT22;39319;52.944;5.928;2022-08-01T13:56:26;25.70;66.20
53422;DHT22;39319;52.944;5.928;2022-08-01T13:58:56;25.70;67.00
53422;DHT22;39319;52.944;5.928;2022-08-01T14:01:22;25.70;64.60
53422;DHT22;39319;52.944;5.928;2022-08-01T14:03:48;25.70;67.20
53422;DHT22;39319;52.944;5.928;2022-08-01T14:06:15;25.80;66.00
53422;DHT22;39319;52.944;5.928;2022-08-01T14:08:42;25.90;67.80
53422;DHT22;39319;52.944;5.928;2022-08-01T14:11:08;26.00;68.40
53422;DHT22;39319;52.944;5.928;2022-08-01T14:13:34;26.20;67.80
53422;DHT22;39319;52.944;5.928;2022-08-01T14:16:02;26.20;63.40
53422;DHT22;39319;52.944;5.928;2022-08-01T14:18:28;26.10;64.60
53422;DHT22;39319;52.944;5.928;2022-08-01T14:20:54;26.10;64.00
53422;DHT22;39319;52.944;5.928;2022-08-01T14:23:20;26.10;65.00
53422;DHT22;39319;52.944;5.928;2022-08-01T14:25:48;26.10;64.70
53422;DHT22;39319;52.944;5.928;2022-08-01T14:28:14;26.20;65.10
53422;DHT22;39319;52.944;5.928;2022-08-01T14:30:40;26.20;65.20
53422;DHT22;39319;52.944;5.928;2022-08-01T14:33:10;26.30;63.90
53422;DHT22;39319;52.944;5.928;2022-08-01T14:35:39;26.30;64.90
53422;DHT22;39319;52.944;5.928;2022-08-01T14:38:06;26.30;64.30
53422;DHT22;39319;52.944;5.928;2022-08-01T14:40:33;26.30;63.20
53422;DHT22;39319;52.944;5.928;2022-08-01T14:42:59;26.40;64.60
53422;DHT22;39319;52.944;5.928;2022-08-01T14:45:26;26.50;65.70
53422;DHT22;39319;52.944;5.928;2022-08-01T14:47:52;26.50;64.80
53422;DHT22;39319;52.944;5.928;2022-08-01T14:50:19;26.60;62.70
53422;DHT22;39319;52.944;5.928;2022-08-01T14:52:44;26.50;62.20
53422;DHT22;39319;52.944;5.928;2022-08-01T14:55:12;26.50;62.20
53422;DHT22;39319;52.944;5.928;2022-08-01T14:57:40;26.50;60.50
53422;DHT22;39319;52.944;5.928;2022-08-01T15:00:08;26.40;62.70
53422;DHT22;39319;52.944;5.928;2022-08-01T15:02:39;26.50;63.70
53422;DHT22;39319;52.944;5.928;2022-08-01T15:05:05;26.50;62.50
53422;DHT22;39319;52.944;5.928;2022-08-01T15:07:31;26.60;62.80
53422;DHT22;39319;52.944;5.928;2022-08-01T15:09:59;26.60;62.20
53422;DHT22;39319;52.944;5.928;2022-08-01T15:12:28;26.70;62.40
53422;DHT22;39319;52.944;5.928;2022-08-01T15:14:54;26.80;61.60
53422;DHT22;39319;52.944;5.928;2022-08-01T15:17:25;26.80;60.20
53422;DHT22;39319;52.944;5.928;2022-08-01T15:19:53;26.90;65.20
53422;DHT22;39319;52.944;5.928;2022-08-01T15:22:20;27.00;60.30
53422;DHT22;39319;52.944;5.928;2022-08-01T15:24:47;27.10;60.40
53422;DHT22;39319;52.944;5.928;2022-08-01T15:27:13;27.10;62.50
53422;DHT22;39319;52.944;5.928;2022-08-01T15:29:39;27.10;59.00
53422;DHT22;39319;52.944;5.928;2022-08-01T15:32:06;27.00;60.00
53422;DHT22;39319;52.944;5.928;2022-08-01T15:34:36;26.90;60.10
53422;DHT22;39319;52.944;5.928;2022-08-01T15:37:02;26.80;60.20
53422;DHT22;39319;52.944;5.928;2022-08-01T15:39:30;26.70;59.50
53422;DHT22;39319;52.944;5.928;2022-08-01T15:42:05;26.60;58.80
53422;DHT22;39319;52.944;5.928;2022-08-01T15:44:32;26.50;58.10
53422;DHT22;39319;52.944;5.928;2022-08-01T15:47:01;26.40;61.00
53422;DHT22;39319;52.944;5.928;2022-08-01T15:49:27;26.40;61.70
53422;DHT22;39319;52.944;5.928;2022-08-01T15:51:53;26.30;61.30
53422;DHT22;39319;52.944;5.928;2022-08-01T15:54:22;26.20;61.40
53422;DHT22;39319;52.944;5.928;2022-08-01T15:56:48;26.10;60.90
53422;DHT22;39319;52.944;5.928;2022-08-01T15:59:14;26.00;63.40
53422;DHT22;39319;52.944;5.928;2022-08-01T16:01:40;26.00;61.80
53422;DHT22;39319;52.944;5.928;2022-08-01T16:04:06;25.80;62.70
53422;DHT22;39319;52.944;5.928;2022-08-01T16:06:33;25.70;61.30
53422;DHT22;39319;52.944;5.928;2022-08-01T16:08:59;25.60;64.90
53422;DHT22;39319;52.944;5.928;2022-08-01T16:11:25;25.60;64.20
53422;DHT22;39319;52.944;5.928;2022-08-01T16:13:55;25.50;63.50